Time;durP1;ratioP1;P1;durP2;ratioP2;P2;SDS_P1;SDS_P2;PMS_P1;PMS_P2;Temp;Humidity;BMP_temperature;BMP_pressure;BME280_temperature;BME280_humidity;BME280_pressure;Samples;Min_cycle;Max_cycle;Signal;HPM_P1;HPM_P2
2023/04/19 00:00:34;;;;;;;35.60;17.83;;;;;;;8.31;nan;100495.72;5042269;28;20126;-85
2023/04/19 00:03:18;;;;;;;35.35;18.42;;;;;;;8.42;nan;100498.97;5038703;28;20036;-82
2023/04/19 00:06:03;;;;;;;39.10;18.58;;;;;;;7.99;nan;100502.97;5049156;28;20048;-84
2023/04/19 00:08:47;;;;;;;33.63;19.02;;;;;;;8.24;nan;100487.59;5039139;28;20117;-84
2023/04/19 00:11:31;;;;;;;40.88;19.67;;;;;;;8.11;nan;100493.16;5041613;28;20040;-82
2023/04/19 00:14:15;;;;;;;41.30;19.95;;;;;;;8.17;nan;100499.63;5045247;28;20094;-84
2023/04/19 00:16:59;;;;;;;44.65;19.92;;;;;;;8.15;nan;100497.97;5039937;28;20132;-83
2023/04/19 00:19:43;;;;;;;40.92;20.50;;;;;;;8.09;nan;100501.16;5043886;28;20060;-84
2023/04/19 00:22:27;;;;;;;36.50;22.10;;;;;;;8.12;nan;100486.97;5043625;28;20036;-82
2023/04/19 00:25:11;;;;;;;45.45;21.95;;;;;;;7.90;nan;100477.69;5041681;28;20072;-83
2023/04/19 00:27:55;;;;;;;39.03;21.10;;;;;;;7.93;nan;100472.97;5045857;28;20039;-83
2023/04/19 00:30:39;;;;;;;44.47;22.67;;;;;;;7.83;nan;100478.22;5038772;28;20549;-82
2023/04/19 00:33:23;;;;;;;40.53;20.50;;;;;;;8.12;nan;100479.13;5044416;28;20047;-82
2023/04/19 00:36:07;;;;;;;46.80;21.67;;;;;;;8.27;nan;100469.03;5037518;28;20044;-83
2023/04/19 00:38:51;;;;;;;39.78;21.65;;;;;;;8.20;nan;100467.94;5039586;28;20041;-82
2023/04/19 00:41:35;;;;;;;36.67;19.00;;;;;;;8.34;nan;100469.25;5040929;28;20049;-83
2023/04/19 00:44:19;;;;;;;34.88;19.67;;;;;;;8.69;nan;100468.59;5042571;28;20049;-82
2023/04/19 00:47:03;;;;;;;35.38;18.83;;;;;;;8.54;nan;100459.56;5038787;28;20051;-83
2023/04/19 00:49:48;;;;;;;39.67;18.60;;;;;;;8.88;nan;100465.97;5041871;28;20044;-83
2023/04/19 00:52:33;;;;;;;44.58;18.85;;;;;;;8.36;nan;100462.13;5042613;28;20048;-81
2023/04/19 00:55:17;;;;;;;37.65;17.15;;;;;;;8.86;nan;100455.66;5050536;28;20059;-82
2023/04/19 00:58:01;;;;;;;41.03;18.73;;;;;;;8.59;nan;100465.19;5041940;28;20095;-82
2023/04/19 01:00:45;;;;;;;42.47;17.42;;;;;;;9.02;nan;100462.03;5041624;28;20047;-82
2023/04/19 01:03:29;;;;;;;37.72;17.77;;;;;;;9.04;nan;100462.69;5040734;28;20403;-85
2023/04/19 01:06:13;;;;;;;39.65;17.77;;;;;;;8.70;nan;100454.53;5042005;28;20041;-86
2023/04/19 01:08:57;;;;;;;46.72;17.92;;;;;;;8.93;nan;100448.03;5040394;28;20044;-82
2023/04/19 01:11:41;;;;;;;38.33;16.88;;;;;;;9.30;nan;100457.53;5039631;28;20107;-83
2023/04/19 01:14:25;;;;;;;35.13;16.90;;;;;;;9.08;nan;100450.97;5037717;28;20059;-81
2023/04/19 01:17:10;;;;;;;31.98;16.58;;;;;;;9.33;nan;100443.31;5045202;28;20091;-81
2023/04/19 01:20:07;;;;;;;33.53;17.13;;;;;;;8.97;nan;100442.34;5037329;28;20048;-81
2023/04/19 01:22:51;;;;;;;35.85;16.10;;;;;;;9.42;nan;100439.75;5041201;28;20163;-81
2023/04/19 01:25:35;;;;;;;36.20;16.35;;;;;;;8.99;nan;100443.00;5040353;28;20124;-81
2023/04/19 01:28:19;;;;;;;41.80;16.85;;;;;;;8.99;nan;100432.53;5041083;28;20040;-81
2023/04/19 01:31:03;;;;;;;38.72;17.52;;;;;;;9.20;nan;100436.66;5043899;28;20047;-82
2023/04/19 01:33:47;;;;;;;43.55;17.15;;;;;;;9.26;nan;100440.47;5040605;28;20124;-81
2023/04/19 01:36:31;;;;;;;38.38;17.52;;;;;;;9.22;nan;100432.06;5040827;28;20498;-83
2023/04/19 01:39:15;;;;;;;32.20;16.90;;;;;;;9.43;nan;100423.06;5037845;28;20398;-81
2023/04/19 01:42:00;;;;;;;35.92;15.63;;;;;;;9.57;nan;100427.75;5039919;28;20094;-82
2023/04/19 01:44:44;;;;;;;36.13;17.77;;;;;;;9.35;nan;100433.50;5041120;28;20128;-83
2023/04/19 01:47:28;;;;;;;33.15;16.52;;;;;;;9.40;nan;100424.22;5040937;28;20052;-83
2023/04/19 01:50:12;;;;;;;32.25;16.48;;;;;;;9.33;nan;100411.88;5042588;28;20170;-82
2023/04/19 01:52:58;;;;;;;37.83;18.00;;;;;;;9.06;nan;100411.00;5045061;28;20051;-82
2023/04/19 01:55:42;;;;;;;39.38;17.85;;;;;;;9.25;nan;100421.31;5038766;28;20032;-81
2023/04/19 01:58:26;;;;;;;37.65;18.70;;;;;;;9.37;nan;100416.66;5039330;28;20103;-82
2023/04/19 02:01:11;;;;;;;36.60;16.92;;;;;;;9.40;nan;100412.88;5042946;28;20067;-81
2023/04/19 02:03:56;;;;;;;40.40;16.45;;;;;;;9.31;nan;100403.34;5039803;28;20124;-81
2023/04/19 02:06:40;;;;;;;28.58;16.17;;;;;;;9.45;nan;100400.16;5040400;28;20116;-83
2023/04/19 02:09:24;;;;;;;33.80;17.40;;;;;;;9.39;nan;100395.53;5044930;28;20047;-82
2023/04/19 02:12:08;;;;;;;35.70;17.75;;;;;;;9.33;nan;100394.31;5039905;28;20052;-82
2023/04/19 02:14:56;;;;;;;39.83;16.25;;;;;;;9.45;nan;100389.69;5040186;28;20044;-82
2023/04/19 02:17:40;;;;;;;31.35;16.55;;;;;;;9.53;nan;100392.34;5041794;28;20048;-82
2023/04/19 02:20:25;;;;;;;33.90;16.52;;;;;;;9.51;nan;100398.72;5039167;28;20637;-84
2023/04/19 02:23:09;;;;;;;39.17;17.52;;;;;;;9.73;nan;100392.13;5040160;28;20412;-83
2023/04/19 02:25:53;;;;;;;32.53;16.58;;;;;;;9.77;nan;100388.22;5035172;28;20049;-82
2023/04/19 02:28:38;;;;;;;31.02;17.20;;;;;;;9.53;nan;100384.50;5040219;28;20179;-81
2023/04/19 02:31:22;;;;;;;31.95;15.98;;;;;;;9.78;nan;100397.72;5038566;28;20114;-83
2023/04/19 02:34:06;;;;;;;37.63;17.55;;;;;;;9.65;nan;100394.72;5039555;28;20047;-83
2023/04/19 02:36:50;;;;;;;32.28;16.05;;;;;;;9.48;nan;100385.91;5039823;28;20542;-82
2023/04/19 02:39:34;;;;;;;37.17;16.35;;;;;;;9.45;nan;100400.16;5039857;28;20052;-81
2023/04/19 02:42:18;;;;;;;32.97;16.40;;;;;;;9.76;nan;100386.59;5043648;28;20086;-83
2023/04/19 02:45:02;;;;;;;38.67;16.52;;;;;;;9.65;nan;100379.00;5041900;28;20461;-82
2023/04/19 02:47:46;;;;;;;28.90;14.93;;;;;;;9.89;nan;100382.72;5038030;28;20055;-82
2023/04/19 02:50:31;;;;;;;31.02;16.02;;;;;;;9.86;nan;100374.19;5040376;28;20568;-81
2023/04/19 02:53:15;;;;;;;29.98;14.93;;;;;;;9.83;nan;100376.28;5044963;28;20095;-81
2023/04/19 02:56:00;;;;;;;30.75;15.18;;;;;;;9.85;nan;100380.41;5040562;28;20450;-81
2023/04/19 02:58:46;;;;;;;40.05;16.73;;;;;;;9.57;nan;100372.72;5044290;28;20082;-81
2023/04/19 03:01:30;;;;;;;36.05;16.77;;;;;;;9.49;nan;100375.28;5041248;28;20051;-83
2023/04/19 03:04:16;;;;;;;33.67;15.65;;;;;;;9.78;nan;100374.13;5034729;28;20052;-85
2023/04/19 03:07:00;;;;;;;33.25;15.48;;;;;;;9.83;nan;100377.13;5042977;28;20060;-85
2023/04/19 03:09:44;;;;;;;38.65;15.43;;;;;;;9.67;nan;100377.03;5041110;28;20394;-85
2023/04/19 03:12:28;;;;;;;35.60;16.02;;;;;;;9.98;nan;100373.91;5037913;28;20091;-85
2023/04/19 03:15:12;;;;;;;32.40;15.57;;;;;;;9.94;nan;100375.19;5032885;28;20044;-85
2023/04/19 03:17:56;;;;;;;34.05;15.63;;;;;;;10.26;nan;100374.50;5039907;28;20124;-83
2023/04/19 03:20:39;;;;;;;30.05;14.93;;;;;;;9.88;nan;100383.69;5037890;28;20091;-82
2023/04/19 03:23:25;;;;;;;37.70;15.10;;;;;;;9.81;nan;100379.06;5035265;28;20039;-82
2023/04/19 03:26:09;;;;;;;37.95;16.00;;;;;;;10.00;nan;100366.69;5039314;28;20106;-83
2023/04/19 03:28:53;;;;;;;38.95;16.73;;;;;;;9.99;nan;100372.91;5044552;28;20048;-83
2023/04/19 03:31:37;;;;;;;30.45;15.13;;;;;;;10.17;nan;100367.59;5044015;28;20168;-83
2023/04/19 03:34:21;;;;;;;40.58;16.38;;;;;;;10.02;nan;100375.22;5041662;28;20048;-82
2023/04/19 03:37:05;;;;;;;33.17;16.25;;;;;;;9.76;nan;100375.28;5046571;28;20644;-82
2023/04/19 03:39:49;;;;;;;32.30;15.30;;;;;;;10.10;nan;100367.41;5041916;28;20041;-82
2023/04/19 03:42:33;;;;;;;34.25;17.13;;;;;;;9.91;nan;100371.06;5045051;28;20048;-81
2023/04/19 03:45:17;;;;;;;45.65;18.38;;;;;;;9.75;nan;100369.19;5040494;28;20052;-83
2023/04/19 03:48:02;;;;;;;34.28;17.10;;;;;;;10.17;nan;100366.75;5040562;28;20048;-83
2023/04/19 03:50:46;;;;;;;34.15;16.45;;;;;;;9.82;nan;100375.47;5044872;28;20127;-81
2023/04/19 03:53:30;;;;;;;40.10;17.55;;;;;;;9.72;nan;100374.75;5037739;28;20048;-83
2023/04/19 03:56:14;;;;;;;34.38;16.13;;;;;;;10.05;nan;100372.31;5051210;28;20086;-87
2023/04/19 03:58:57;;;;;;;39.45;16.98;;;;;;;10.12;nan;100367.22;5044299;28;20056;-86
2023/04/19 04:01:41;;;;;;;36.90;16.10;;;;;;;10.04;nan;100368.03;5045195;28;20052;-88
2023/04/19 04:04:26;;;;;;;35.03;15.65;;;;;;;10.13;nan;100371.53;5040692;28;20470;-87
2023/04/19 04:07:10;;;;;;;39.05;17.40;;;;;;;10.09;nan;100359.66;5049239;28;20521;-89
2023/04/19 04:09:54;;;;;;;57.67;18.50;;;;;;;10.10;nan;100361.31;5044847;28;20176;-85
2023/04/19 04:12:38;;;;;;;36.78;16.15;;;;;;;10.09;nan;100365.75;5043750;28;20510;-85
2023/04/19 04:15:22;;;;;;;36.20;17.33;;;;;;;10.04;nan;100369.81;5049744;28;20079;-87
2023/04/19 04:18:06;;;;;;;37.83;17.10;;;;;;;9.89;nan;100352.06;5044804;28;20090;-87
2023/04/19 04:20:50;;;;;;;48.45;18.88;;;;;;;9.78;nan;100357.59;5047235;28;20079;-90
2023/04/19 04:23:36;;;;;;;37.42;17.77;;;;;;;10.21;nan;100370.69;5045989;28;20076;-86
2023/04/19 04:26:20;;;;;;;38.67;18.05;;;;;;;10.05;nan;100359.19;5041895;28;20080;-87
2023/04/19 04:29:04;;;;;;;35.75;16.83;;;;;;;10.44;nan;100365.72;5037074;28;20102;-86
2023/04/19 04:31:49;;;;;;;29.45;17.35;;;;;;;10.23;nan;100358.25;5044833;28;20040;-85
2023/04/19 04:34:34;;;;;;;55.67;19.30;;;;;;;10.47;nan;100368.00;5043487;28;20049;-84
2023/04/19 04:37:19;;;;;;;37.00;18.90;;;;;;;10.00;nan;100366.69;5047003;28;20386;-87
2023/04/19 04:40:04;;;;;;;38.05;16.75;;;;;;;10.34;nan;100368.44;5044293;28;20051;-85
2023/04/19 04:42:51;;;;;;;49.35;19.58;;;;;;;10.33;nan;100372.06;5042293;28;20045;-87
2023/04/19 04:45:36;;;;;;;49.13;19.30;;;;;;;10.01;nan;100368.31;5046390;28;20125;-88
2023/04/19 04:48:21;;;;;;;47.20;19.73;;;;;;;9.97;nan;100372.25;5043444;28;20080;-87
2023/04/19 04:51:05;;;;;;;40.72;20.55;;;;;;;10.33;nan;100364.19;5045100;28;20449;-86
2023/04/19 04:53:49;;;;;;;46.05;21.63;;;;;;;10.26;nan;100358.75;5044093;28;20060;-82
2023/04/19 04:56:33;;;;;;;45.42;20.90;;;;;;;10.31;nan;100363.53;5042708;28;20048;-84
2023/04/19 04:59:16;;;;;;;43.13;20.40;;;;;;;10.45;nan;100366.56;5042283;28;20052;-83
2023/04/19 05:02:00;;;;;;;47.10;21.38;;;;;;;10.27;nan;100354.34;5042489;28;20094;-84
2023/04/19 05:04:45;;;;;;;52.92;22.05;;;;;;;10.37;nan;100362.88;5046128;28;20052;-82
2023/04/19 05:07:29;;;;;;;43.92;19.90;;;;;;;10.39;nan;100366.16;5042800;28;20414;-84
2023/04/19 05:10:13;;;;;;;45.92;20.83;;;;;;;10.18;nan;100363.97;5046458;28;20047;-79
2023/04/19 05:12:57;;;;;;;44.22;21.60;;;;;;;9.95;nan;100379.47;5039754;28;20048;-79
2023/04/19 05:15:41;;;;;;;41.72;21.55;;;;;;;10.26;nan;100377.13;5046911;28;20053;-82
2023/04/19 05:18:25;;;;;;;58.15;25.92;;;;;;;10.10;nan;100370.03;5042364;28;20056;-85
2023/04/19 05:21:09;;;;;;;50.10;23.30;;;;;;;10.27;nan;100367.44;5045119;28;20098;-85
2023/04/19 05:23:53;;;;;;;51.58;23.45;;;;;;;10.40;nan;100377.50;5044434;28;20132;-82
2023/04/19 05:26:37;;;;;;;51.40;27.00;;;;;;;10.10;nan;100371.81;5041002;28;20120;-83
2023/04/19 05:29:22;;;;;;;49.25;25.33;;;;;;;10.11;nan;100369.03;5041352;28;20048;-82
2023/04/19 05:32:06;;;;;;;53.90;26.33;;;;;;;9.88;nan;100379.25;5045456;28;20098;-84
2023/04/19 05:34:51;;;;;;;63.97;30.33;;;;;;;10.05;nan;100368.84;5038734;28;20045;-83
2023/04/19 05:37:35;;;;;;;51.05;24.20;;;;;;;9.81;nan;100381.69;5038268;28;20082;-82
2023/04/19 05:40:19;;;;;;;58.30;23.63;;;;;;;10.00;nan;100383.25;5038192;28;20039;-81
2023/04/19 05:43:03;;;;;;;46.63;22.38;;;;;;;9.94;nan;100373.41;5044516;28;20407;-80
2023/04/19 05:45:48;;;;;;;53.58;24.63;;;;;;;9.82;nan;100375.47;5043415;28;20115;-81
2023/04/19 05:48:32;;;;;;;44.60;22.75;;;;;;;10.13;nan;100384.63;5035058;28;20037;-83
2023/04/19 05:51:17;;;;;;;47.83;24.00;;;;;;;10.40;nan;100383.56;5042840;28;20040;-82
2023/04/19 05:54:02;;;;;;;48.63;22.42;;;;;;;10.04;nan;100386.41;5041717;28;20048;-82
2023/04/19 05:56:45;;;;;;;47.10;21.85;;;;;;;10.25;nan;100387.78;5041479;28;20098;-81
2023/04/19 05:59:30;;;;;;;61.45;24.92;;;;;;;10.19;nan;100391.03;5039223;28;20530;-81
2023/04/19 06:02:14;;;;;;;54.05;26.08;;;;;;;10.23;nan;100390.56;5042012;28;20505;-81
2023/04/19 06:05:02;;;;;;;57.17;29.35;;;;;;;10.18;nan;100386.75;5039158;28;20435;-82
2023/04/19 06:07:47;;;;;;;58.67;27.48;;;;;;;10.31;nan;100395.03;5043079;28;20056;-84
2023/04/19 06:10:31;;;;;;;51.08;25.30;;;;;;;9.90;nan;100384.38;5036130;28;20079;-83
2023/04/19 06:13:15;;;;;;;57.42;23.60;;;;;;;9.98;nan;100394.88;5035918;28;20095;-85
2023/04/19 06:15:59;;;;;;;57.40;28.02;;;;;;;10.06;nan;100396.72;5037511;28;20176;-84
2023/04/19 06:18:43;;;;;;;58.47;27.15;;;;;;;10.18;nan;100397.25;5042253;28;20072;-79
2023/04/19 06:21:30;;;;;;;52.28;26.17;;;;;;;10.34;nan;100399.94;5040816;28;20099;-81
2023/04/19 06:24:14;;;;;;;62.40;26.73;;;;;;;10.64;nan;100402.19;5046874;28;20036;-83
2023/04/19 06:26:58;;;;;;;53.88;24.60;;;;;;;10.41;nan;100400.97;5040546;28;20087;-82
2023/04/19 06:29:43;;;;;;;55.72;24.73;;;;;;;10.33;nan;100400.94;5042896;28;20063;-83
2023/04/19 06:32:27;;;;;;;59.67;26.70;;;;;;;10.35;nan;100395.53;5035677;28;20114;-81
2023/04/19 06:35:11;;;;;;;62.92;26.30;;;;;;;10.36;nan;100403.22;5040601;28;20080;-80
2023/04/19 06:37:54;;;;;;;49.92;24.63;;;;;;;10.25;nan;100401.72;5036769;28;20446;-79
2023/04/19 06:40:39;;;;;;;64.22;27.67;;;;;;;10.40;nan;100404.56;5038621;28;20048;-80
2023/04/19 06:43:23;;;;;;;63.05;28.17;;;;;;;10.80;nan;100404.00;5043622;28;20101;-80
2023/04/19 06:46:07;;;;;;;58.30;25.90;;;;;;;10.38;nan;100397.84;5037498;28;20080;-79
2023/04/19 06:48:51;;;;;;;58.78;27.50;;;;;;;10.34;nan;100399.94;5037212;28;20147;-78
2023/04/19 06:51:37;;;;;;;57.30;27.02;;;;;;;10.15;nan;100396.59;5033525;28;20028;-78
2023/04/19 06:54:21;;;;;;;56.58;27.50;;;;;;;10.42;nan;100397.41;5040850;28;20048;-79
2023/04/19 06:57:05;;;;;;;59.22;27.90;;;;;;;10.29;nan;100391.72;5037724;28;20589;-78
2023/04/19 06:59:49;;;;;;;55.30;28.30;;;;;;;10.34;nan;100401.75;5042193;28;20498;-79
2023/04/19 07:02:34;;;;;;;53.42;28.67;;;;;;;10.36;nan;100402.44;5043076;28;20044;-78
2023/04/19 07:05:18;;;;;;;47.60;26.55;;;;;;;10.50;nan;100403.63;5040065;28;20395;-78
2023/04/19 07:08:02;;;;;;;58.83;29.50;;;;;;;10.73;nan;100400.41;5049155;28;20064;-77
2023/04/19 07:10:46;;;;;;;60.22;28.63;;;;;;;10.64;nan;100399.56;5047868;28;20086;-78
2023/04/19 07:13:30;;;;;;;59.15;30.52;;;;;;;10.21;nan;100399.56;5042911;28;20088;-78
2023/04/19 07:16:14;;;;;;;62.47;31.73;;;;;;;10.38;nan;100403.09;5046817;28;20105;-78
2023/04/19 07:18:58;;;;;;;62.80;32.78;;;;;;;10.59;nan;100397.41;5042000;28;20086;-78
2023/04/19 07:21:42;;;;;;;70.00;33.03;;;;;;;10.54;nan;100404.94;5043382;28;20047;-78
2023/04/19 07:24:28;;;;;;;64.65;32.60;;;;;;;10.86;nan;100409.44;5043686;28;20100;-78
2023/04/19 07:27:13;;;;;;;65.05;33.22;;;;;;;10.74;nan;100410.75;5046434;28;20565;-79
2023/04/19 07:29:57;;;;;;;70.15;32.03;;;;;;;10.92;nan;100409.78;5040460;28;20542;-80
2023/04/19 07:32:41;;;;;;;65.75;34.20;;;;;;;11.34;nan;100405.34;5043182;28;20055;-80
2023/04/19 07:35:25;;;;;;;68.75;35.90;;;;;;;11.00;nan;100405.38;5041026;28;20056;-81
2023/04/19 07:38:09;;;;;;;66.45;36.55;;;;;;;11.08;nan;100399.28;5043982;28;20187;-81
2023/04/19 07:40:53;;;;;;;70.13;35.25;;;;;;;11.44;nan;100406.00;5045534;28;20051;-81
2023/04/19 07:43:37;;;;;;;68.03;33.92;;;;;;;11.25;nan;100402.72;5044245;28;20169;-82
2023/04/19 07:46:21;;;;;;;66.30;36.13;;;;;;;11.44;nan;100413.91;5042671;28;20056;-81
2023/04/19 07:49:05;;;;;;;64.72;35.88;;;;;;;11.45;nan;100412.91;5041752;28;20189;-82
2023/04/19 07:51:49;;;;;;;72.80;36.97;;;;;;;11.80;nan;100405.63;5046138;28;20091;-81
2023/04/19 07:54:33;;;;;;;72.85;38.83;;;;;;;11.31;nan;100408.31;5039941;28;20039;-81
2023/04/19 07:57:17;;;;;;;84.10;39.30;;;;;;;12.04;nan;100408.34;5045309;28;20103;-81
2023/04/19 08:00:01;;;;;;;113.53;41.72;;;;;;;11.89;nan;100400.31;5042552;28;20043;-81
2023/04/19 08:02:45;;;;;;;97.05;39.03;;;;;;;11.89;nan;100414.31;5044212;28;20494;-82
2023/04/19 08:05:30;;;;;;;65.32;35.58;;;;;;;12.01;nan;100412.16;5041102;28;20052;-81
2023/04/19 08:08:14;;;;;;;64.07;36.92;;;;;;;11.93;nan;100414.75;5044276;28;20047;-81
2023/04/19 08:11:00;;;;;;;62.90;37.22;;;;;;;11.58;nan;100417.66;5041723;28;20410;-80
2023/04/19 08:13:45;;;;;;;75.10;37.45;;;;;;;11.87;nan;100416.25;5044293;28;20087;-80
2023/04/19 08:16:29;;;;;;;70.72;37.33;;;;;;;11.45;nan;100407.66;5042267;28;20098;-81
2023/04/19 08:19:12;;;;;;;65.07;37.60;;;;;;;12.08;nan;100399.94;5041316;28;20044;-82
2023/04/19 08:21:56;;;;;;;64.93;38.33;;;;;;;12.20;nan;100407.47;5040116;28;20103;-83
2023/04/19 08:24:40;;;;;;;69.65;38.35;;;;;;;11.99;nan;100414.09;5040811;28;20047;-83
2023/04/19 08:27:26;;;;;;;70.35;39.92;;;;;;;12.52;nan;100403.03;5043665;28;20487;-84
2023/04/19 08:30:11;;;;;;;63.28;39.45;;;;;;;12.29;nan;100411.69;5041976;28;20052;-84
2023/04/19 08:32:55;;;;;;;78.00;43.42;;;;;;;11.98;nan;100412.44;5041284;28;20044;-84
2023/04/19 08:35:40;;;;;;;78.85;43.42;;;;;;;11.95;nan;100413.63;5037732;28;20632;-82
2023/04/19 08:38:24;;;;;;;75.90;44.53;;;;;;;12.02;nan;100413.78;5038849;28;20044;-79
2023/04/19 08:41:10;;;;;;;72.97;43.72;;;;;;;11.73;nan;100419.59;5038318;28;20052;-79
2023/04/19 08:43:55;;;;;;;83.50;47.67;;;;;;;11.92;nan;100413.13;5043917;28;20044;-77
2023/04/19 08:46:41;;;;;;;65.45;40.40;;;;;;;12.12;nan;100417.03;5038219;28;20107;-77
2023/04/19 08:49:27;;;;;;;84.95;45.80;;;;;;;12.41;nan;100420.88;5041944;28;20059;-76
2023/04/19 08:52:12;;;;;;;77.65;43.85;;;;;;;12.45;nan;100420.53;5037585;28;20051;-77
2023/04/19 08:54:56;;;;;;;71.93;42.97;;;;;;;12.77;nan;100424.78;5041266;28;20113;-76
2023/04/19 08:57:40;;;;;;;80.00;44.60;;;;;;;12.88;nan;100420.91;5033603;28;20044;-77
2023/04/19 09:00:24;;;;;;;75.10;44.40;;;;;;;12.35;nan;100426.81;5042835;28;20504;-76
2023/04/19 09:03:10;;;;;;;80.93;45.10;;;;;;;12.92;nan;100409.00;5036254;28;20126;-78
2023/04/19 09:05:54;;;;;;;68.72;37.75;;;;;;;12.63;nan;100418.44;5033276;28;20103;-77
2023/04/19 09:08:39;;;;;;;59.38;34.53;;;;;;;13.02;nan;100400.88;5036295;28;20483;-76
2023/04/19 09:11:40;;;;;;;50.03;31.27;;;;;;;13.03;nan;100404.34;5033973;28;20167;-77
2023/04/19 09:14:25;;;;;;;60.15;33.55;;;;;;;13.65;nan;100402.50;5035829;28;20095;-77
2023/04/19 09:17:15;;;;;;;54.88;34.20;;;;;;;13.55;nan;100408.84;5034720;28;20044;-77
2023/04/19 09:20:00;;;;;;;67.03;38.70;;;;;;;13.26;nan;100404.28;5034938;28;20036;-79
2023/04/19 09:23:02;;;;;;;71.50;37.80;;;;;;;13.24;nan;100407.13;5038863;28;20559;-78
2023/04/19 09:25:52;;;;;;;57.80;35.15;;;;;;;12.95;nan;100408.66;5039580;28;20083;-77
2023/04/19 09:28:36;;;;;;;60.40;33.03;;;;;;;13.38;nan;100407.34;5037024;28;20203;-79
2023/04/19 09:31:27;;;;;;;61.53;32.15;;;;;;;13.44;nan;100406.66;5041314;28;20043;-78
2023/04/19 09:34:16;;;;;;;54.17;29.25;;;;;;;13.09;nan;100415.00;5031595;28;20044;-78
2023/04/19 09:37:13;;;;;;;58.40;30.45;;;;;;;13.55;nan;100411.47;5044498;28;20087;-79
2023/04/19 09:39:57;;;;;;;62.50;28.60;;;;;;;13.83;nan;100407.41;5030406;28;20060;-79
2023/04/19 09:42:45;;;;;;;51.00;30.10;;;;;;;13.65;nan;100405.13;5030039;28;20187;-78
2023/04/19 09:45:40;;;;;;;50.30;31.77;;;;;;;14.06;nan;100402.03;5031032;28;20076;-78
2023/04/19 09:48:25;;;;;;;61.90;32.28;;;;;;;13.95;nan;100395.38;5031287;28;20096;-78
2023/04/19 09:51:09;;;;;;;61.08;32.78;;;;;;;13.38;nan;100402.06;5039822;28;20040;-81
2023/04/19 09:53:54;;;;;;;55.05;31.85;;;;;;;14.02;nan;100403.41;5027517;28;20171;-79
2023/04/19 09:56:38;;;;;;;50.30;28.35;;;;;;;14.06;nan;100404.66;5039055;28;20560;-78
2023/04/19 09:59:24;;;;;;;44.90;25.55;;;;;;;14.07;nan;100395.75;5032938;28;20124;-80
2023/04/19 10:02:11;;;;;;;43.28;25.52;;;;;;;14.36;nan;100395.88;5026529;28;20052;-79
2023/04/19 10:04:56;;;;;;;43.35;24.35;;;;;;;14.91;nan;100385.69;5033670;28;20051;-79
2023/04/19 10:07:41;;;;;;;42.85;23.52;;;;;;;14.59;nan;100387.81;5045963;28;20098;-79
2023/04/19 10:10:27;;;;;;;46.47;22.92;;;;;;;14.69;nan;100377.72;5033586;28;20071;-79
2023/04/19 10:13:12;;;;;;;45.97;24.27;;;;;;;13.68;nan;100381.84;5039272;28;20056;-79
2023/04/19 10:15:56;;;;;;;44.08;23.85;;;;;;;14.08;nan;100370.16;5036814;28;20051;-79
2023/04/19 10:18:41;;;;;;;46.75;24.67;;;;;;;14.29;nan;100372.03;5036222;28;20048;-78
2023/04/19 10:21:27;;;;;;;45.50;24.38;;;;;;;14.68;nan;100378.72;5038197;28;20051;-78
2023/04/19 10:24:13;;;;;;;46.25;24.30;;;;;;;14.09;nan;100383.16;5038059;28;20150;-78
2023/04/19 10:27:11;;;;;;;38.17;24.98;;;;;;;14.46;nan;100377.09;5037783;28;20502;-81
2023/04/19 10:29:55;;;;;;;36.38;24.85;;;;;;;14.34;nan;100389.97;5035498;28;20044;-79
2023/04/19 10:32:40;;;;;;;41.80;23.45;;;;;;;14.21;nan;100386.16;5037623;28;20047;-79
2023/04/19 10:35:30;;;;;;;39.78;23.02;;;;;;;14.59;nan;100374.59;5031114;28;20114;-79
2023/04/19 10:38:18;;;;;;;36.08;21.23;;;;;;;15.39;nan;100373.66;5035317;28;20506;-77
2023/04/19 10:41:04;;;;;;;40.00;21.77;;;;;;;15.50;nan;100373.09;5046477;28;20410;-76
2023/04/19 10:43:54;;;;;;;35.75;20.45;;;;;;;15.58;nan;100380.06;5040923;28;20438;-75
2023/04/19 10:46:39;;;;;;;33.88;20.77;;;;;;;16.20;nan;100368.78;5042930;28;21888;-75
2023/04/19 10:49:27;;;;;;;41.03;20.98;;;;;;;15.98;nan;100367.06;5040524;28;20568;-77
2023/04/19 10:52:28;;;;;;;29.77;18.45;;;;;;;15.77;nan;100362.69;5039678;28;20036;-75
2023/04/19 10:55:15;;;;;;;34.28;18.95;;;;;;;16.01;nan;100357.91;5035869;28;20099;-76
2023/04/19 10:58:06;;;;;;;39.28;17.83;;;;;;;16.10;nan;100371.81;5039013;28;20071;-75
2023/04/19 11:00:50;;;;;;;35.83;17.70;;;;;;;15.41;nan;100356.56;5043239;28;20095;-75
2023/04/19 11:03:43;;;;;;;38.45;17.33;;;;;;;15.38;nan;100364.09;5038369;28;20067;-75
2023/04/19 11:06:27;;;;;;;28.08;16.35;;;;;;;15.44;nan;100358.00;5036734;28;20399;-75
2023/04/19 11:09:23;;;;;;;32.28;16.20;;;;;;;15.66;nan;100358.75;5041519;28;20039;-76
2023/04/19 11:12:10;;;;;;;28.75;16.00;;;;;;;15.70;nan;100361.81;5037376;28;20056;-76
2023/04/19 11:14:58;;;;;;;31.27;16.50;;;;;;;15.85;nan;100356.41;5041859;28;20559;-75
2023/04/19 11:17:42;;;;;;;33.90;15.48;;;;;;;15.78;nan;100342.31;5040993;28;20048;-75
2023/04/19 11:20:26;;;;;;;29.30;15.13;;;;;;;16.33;nan;100345.00;5043065;28;20115;-75
2023/04/19 11:23:17;;;;;;;38.30;15.95;;;;;;;16.83;nan;100336.69;5037883;28;20071;-77
2023/04/19 11:26:01;;;;;;;37.03;14.82;;;;;;;16.62;nan;100343.00;5040331;28;20388;-75
2023/04/19 11:28:45;;;;;;;39.08;15.95;;;;;;;17.24;nan;100332.19;5041391;28;20048;-77
2023/04/19 11:31:32;;;;;;;34.97;15.52;;;;;;;17.20;nan;100333.63;5042512;28;20461;-74
2023/04/19 11:34:18;;;;;;;27.95;15.80;;;;;;;17.47;nan;100338.88;5039720;28;20399;-77
2023/04/19 11:37:02;;;;;;;26.17;14.88;;;;;;;17.86;nan;100336.31;5032620;28;20040;-74
2023/04/19 11:39:46;;;;;;;29.50;14.65;;;;;;;17.92;nan;100330.16;5040207;28;20102;-75
2023/04/19 11:42:31;;;;;;;34.75;15.23;;;;;;;18.17;nan;100339.25;5041847;28;20044;-74
2023/04/19 11:45:29;;;;;;;36.28;16.05;;;;;;;18.36;nan;100325.03;5036303;28;20060;-77
2023/04/19 11:48:15;;;;;;;28.80;15.05;;;;;;;19.11;nan;100325.31;5040962;28;20076;-76
2023/04/19 11:50:59;;;;;;;23.75;14.68;;;;;;;18.79;nan;100320.03;5035499;28;20036;-74
2023/04/19 11:53:43;;;;;;;31.38;14.90;;;;;;;18.51;nan;100324.72;5038552;28;20037;-74
2023/04/19 11:56:27;;;;;;;25.92;14.60;;;;;;;17.66;nan;100325.75;5045242;28;20044;-76
2023/04/19 11:59:12;;;;;;;26.25;13.77;;;;;;;18.21;nan;100321.84;5043153;28;20455;-75
2023/04/19 12:02:07;;;;;;;24.27;13.38;;;;;;;18.72;nan;100322.72;5041629;28;20126;-76
2023/04/19 12:04:51;;;;;;;38.88;15.10;;;;;;;17.31;nan;100318.13;5044316;28;20040;-76
2023/04/19 12:07:35;;;;;;;25.58;14.68;;;;;;;17.48;nan;100324.56;5041147;28;20036;-75
2023/04/19 12:10:19;;;;;;;31.73;14.95;;;;;;;18.10;nan;100318.03;5044009;28;20064;-75
2023/04/19 12:13:18;;;;;;;28.00;14.18;;;;;;;17.27;nan;100317.69;5046546;28;20052;-76
2023/04/19 12:16:02;;;;;;;20.75;12.88;;;;;;;17.26;nan;100314.22;5040871;28;20624;-75
2023/04/19 12:18:49;;;;;;;24.67;12.48;;;;;;;16.81;nan;100320.16;5043423;28;20068;-76
2023/04/19 12:21:33;;;;;;;20.52;12.65;;;;;;;17.51;nan;100313.56;5039660;28;20791;-76
2023/04/19 12:24:17;;;;;;;27.40;13.68;;;;;;;17.61;nan;100317.59;5044647;28;20099;-75
2023/04/19 12:27:01;;;;;;;22.27;12.00;;;;;;;17.01;nan;100318.53;5038658;28;20036;-75
2023/04/19 12:29:45;;;;;;;20.98;12.68;;;;;;;16.67;nan;100323.84;5043567;28;20505;-75
2023/04/19 12:32:29;;;;;;;23.42;12.90;;;;;;;16.69;nan;100322.59;5044520;28;20047;-75
2023/04/19 12:35:13;;;;;;;23.40;12.63;;;;;;;17.09;nan;100307.72;5041647;28;20510;-75
2023/04/19 12:37:58;;;;;;;18.33;11.20;;;;;;;17.35;nan;100314.00;5042404;28;20506;-75
2023/04/19 12:40:42;;;;;;;22.60;11.45;;;;;;;17.85;nan;100300.94;5040800;28;20505;-75
2023/04/19 12:43:28;;;;;;;21.27;10.75;;;;;;;17.91;nan;100309.13;5039263;28;20115;-75
2023/04/19 12:46:12;;;;;;;20.42;9.82;;;;;;;17.56;nan;100311.09;5043413;28;20047;-75
2023/04/19 12:48:56;;;;;;;19.38;11.20;;;;;;;17.35;nan;100298.09;5039380;28;20526;-75